Time;durP1;ratioP1;P1;durP2;ratioP2;P2;SDS_P1;SDS_P2;PMS_P1;PMS_P2;Temp;Humidity;BMP_temperature;BMP_pressure;BME280_temperature;BME280_humidity;BME280_pressure;Samples;Min_cycle;Max_cycle;Signal;HPM_P1;HPM_P2
2022/10/01 00:01:21;;;;;;;4.05;3.13;;;12.50;99.90;;;;;;5038096;28;20246;-72
2022/10/01 00:03:48;;;;;;;3.85;3.15;;;12.50;99.90;;;;;;5034598;28;20717;-73
2022/10/01 00:06:17;;;;;;;4.18;3.75;;;12.60;99.90;;;;;;5034687;28;20238;-72
2022/10/01 00:08:45;;;;;;;4.93;3.88;;;12.50;99.90;;;;;;5033943;28;20315;-73
2022/10/01 00:11:15;;;;;;;3.75;2.95;;;12.60;99.90;;;;;;5029517;28;20255;-75
2022/10/01 00:13:43;;;;;;;4.10;3.10;;;12.60;99.90;;;;;;5032788;28;20211;-74
2022/10/01 00:16:12;;;;;;;3.90;3.40;;;12.60;99.90;;;;;;5033766;28;20213;-72
2022/10/01 00:18:42;;;;;;;4.43;3.65;;;12.70;99.90;;;;;;5034439;28;20754;-72
2022/10/01 00:21:11;;;;;;;5.85;3.83;;;12.70;99.90;;;;;;5033330;28;20199;-73
2022/10/01 00:23:38;;;;;;;4.43;4.03;;;12.70;99.90;;;;;;5034526;28;20212;-73
2022/10/01 00:26:13;;;;;;;4.88;4.15;;;12.70;99.90;;;;;;5034009;28;20289;-72
2022/10/01 00:28:41;;;;;;;6.05;3.03;;;12.70;99.90;;;;;;5032154;28;20233;-73
2022/10/01 00:31:10;;;;;;;5.60;3.60;;;12.60;99.90;;;;;;5033348;28;20223;-73
2022/10/01 00:33:37;;;;;;;3.47;3.15;;;12.60;99.90;;;;;;5033880;28;20585;-72
2022/10/01 00:36:08;;;;;;;4.70;2.70;;;12.60;99.90;;;;;;5033752;28;20715;-74
2022/10/01 00:38:36;;;;;;;4.63;2.83;;;12.60;99.90;;;;;;5032453;28;20224;-73
2022/10/01 00:41:04;;;;;;;3.90;3.53;;;12.60;99.90;;;;;;5033094;28;20216;-73
2022/10/01 00:43:34;;;;;;;4.60;3.88;;;12.60;99.90;;;;;;5033071;28;20244;-70
2022/10/01 00:46:06;;;;;;;4.00;3.10;;;12.60;99.90;;;;;;5033335;28;20231;-73
2022/10/01 00:48:41;;;;;;;4.63;3.72;;;12.70;99.90;;;;;;5030001;28;20325;-72
2022/10/01 00:51:09;;;;;;;14.20;5.70;;;12.70;99.90;;;;;;5030559;28;20229;-72
2022/10/01 00:53:38;;;;;;;6.38;3.33;;;12.70;99.90;;;;;;5031893;28;20655;-74
2022/10/01 00:56:07;;;;;;;4.28;3.58;;;12.70;99.90;;;;;;5030502;28;20239;-74
2022/10/01 00:58:34;;;;;;;4.60;3.35;;;12.70;99.90;;;;;;5032864;28;20214;-71
2022/10/01 01:01:01;;;;;;;6.13;3.40;;;12.70;99.90;;;;;;5032576;28;20274;-74
2022/10/01 01:03:28;;;;;;;3.35;2.63;;;12.70;99.90;;;;;;5033212;28;20229;-72
2022/10/01 01:05:55;;;;;;;5.57;3.30;;;12.70;99.90;;;;;;5031492;28;20195;-72
2022/10/01 01:08:23;;;;;;;6.25;4.55;;;12.70;99.90;;;;;;5032215;28;20701;-71
2022/10/01 01:11:01;;;;;;;4.50;3.35;;;12.80;99.90;;;;;;5029427;28;20234;-73
2022/10/01 01:13:36;;;;;;;4.35;2.85;;;12.80;99.90;;;;;;5030039;28;20293;-72
2022/10/01 01:16:09;;;;;;;5.78;3.40;;;12.90;99.90;;;;;;5030721;28;20581;-72
2022/10/01 01:18:41;;;;;;;4.53;3.22;;;12.90;99.90;;;;;;5032921;28;20623;-72
2022/10/01 01:21:25;;;;;;;3.53;2.55;;;12.90;99.90;;;;;;5028016;28;20200;-73
2022/10/01 01:24:19;;;;;;;3.10;2.80;;;12.90;99.90;;;;;;5032853;28;20211;-73
2022/10/01 01:26:59;;;;;;;3.30;3.00;;;13.00;99.90;;;;;;5031998;28;20207;-73
2022/10/01 01:29:32;;;;;;;4.63;3.75;;;12.90;99.90;;;;;;5033630;28;20655;-72
2022/10/01 01:32:07;;;;;;;4.65;2.95;;;12.90;99.90;;;;;;5032243;28;20231;-72
2022/10/01 01:34:37;;;;;;;6.43;3.10;;;12.90;99.90;;;;;;5033983;28;20286;-72
2022/10/01 01:37:11;;;;;;;4.72;3.60;;;12.90;99.90;;;;;;5028601;28;20233;-74
2022/10/01 01:39:41;;;;;;;5.75;3.20;;;13.00;99.90;;;;;;5033355;28;20214;-75
2022/10/01 01:42:15;;;;;;;3.60;3.10;;;13.00;99.90;;;;;;5041823;28;20201;-73
2022/10/01 01:44:46;;;;;;;3.58;2.80;;;13.00;99.90;;;;;;5043997;28;20695;-73
2022/10/01 01:47:14;;;;;;;4.28;3.60;;;13.10;99.90;;;;;;5041780;28;20252;-74
2022/10/01 01:49:43;;;;;;;5.03;3.45;;;13.10;99.90;;;;;;5043719;28;20292;-72
2022/10/01 01:52:13;;;;;;;4.30;2.92;;;13.10;99.90;;;;;;5045312;28;20224;-71
2022/10/01 01:54:43;;;;;;;3.85;3.33;;;13.10;99.90;;;;;;5045805;28;20208;-72
2022/10/01 01:57:12;;;;;;;3.67;3.35;;;13.10;99.90;;;;;;5037970;28;20235;-71
2022/10/01 01:59:40;;;;;;;4.35;3.55;;;13.00;99.90;;;;;;5038684;28;20583;-72
2022/10/01 02:02:12;;;;;;;4.20;3.55;;;13.00;99.90;;;;;;5032329;28;20703;-73
2022/10/01 02:04:43;;;;;;;3.75;3.38;;;12.90;99.90;;;;;;5032268;28;20212;-73
2022/10/01 02:07:30;;;;;;;4.63;3.97;;;12.90;99.90;;;;;;5028612;28;20254;-72
2022/10/01 02:10:10;;;;;;;3.30;3.00;;;12.90;99.90;;;;;;5027863;28;20204;-73
2022/10/01 02:12:46;;;;;;;4.50;3.40;;;12.90;99.90;;;;;;5030641;28;20219;-73
2022/10/01 02:15:22;;;;;;;4.55;4.15;;;12.90;99.90;;;;;;5031619;28;20227;-73
2022/10/01 02:17:58;;;;;;;4.10;3.70;;;12.80;99.90;;;;;;5030515;28;20219;-74
2022/10/01 02:20:30;;;;;;;4.40;3.95;;;12.70;99.90;;;;;;5031943;28;20256;-72
2022/10/01 02:23:03;;;;;;;5.50;4.03;;;12.70;99.90;;;;;;5031987;28;20290;-72
2022/10/01 02:25:34;;;;;;;5.35;4.35;;;12.60;99.90;;;;;;5032067;28;20250;-73
2022/10/01 02:28:06;;;;;;;4.13;3.55;;;12.70;99.90;;;;;;5031871;28;20225;-73
2022/10/01 02:30:35;;;;;;;4.70;4.18;;;12.60;99.90;;;;;;5029791;28;20225;-72
2022/10/01 02:33:05;;;;;;;5.57;4.68;;;12.60;99.90;;;;;;5032570;28;20214;-72
2022/10/01 02:35:34;;;;;;;4.65;4.25;;;12.60;99.90;;;;;;5032316;28;20286;-73
2022/10/01 02:38:05;;;;;;;5.00;4.50;;;12.60;99.90;;;;;;5036067;28;20333;-71
2022/10/01 02:40:35;;;;;;;4.45;3.72;;;12.60;99.90;;;;;;5035313;28;20199;-72
2022/10/01 02:43:07;;;;;;;5.00;4.50;;;12.60;99.90;;;;;;5036279;28;20199;-71
2022/10/01 02:45:36;;;;;;;5.72;4.88;;;12.60;99.90;;;;;;5035630;28;20242;-72
2022/10/01 02:48:08;;;;;;;5.22;4.72;;;12.50;99.90;;;;;;5035788;28;20224;-72
2022/10/01 02:50:42;;;;;;;5.40;4.53;;;12.60;99.90;;;;;;5033939;28;20373;-73
2022/10/01 02:53:13;;;;;;;5.88;5.28;;;12.50;99.90;;;;;;5035983;28;20290;-72
2022/10/01 02:55:41;;;;;;;5.05;4.25;;;12.50;99.90;;;;;;5034861;28;20281;-73
2022/10/01 02:58:07;;;;;;;5.03;4.53;;;12.50;99.90;;;;;;5029918;28;20303;-72
2022/10/01 03:00:35;;;;;;;6.50;5.50;;;12.50;99.90;;;;;;5027330;28;20282;-71
2022/10/01 03:03:01;;;;;;;5.47;4.97;;;12.50;99.90;;;;;;5035838;28;20552;-72
2022/10/01 03:05:30;;;;;;;5.22;4.72;;;12.50;99.90;;;;;;5035379;28;20303;-73
2022/10/01 03:07:57;;;;;;;5.30;4.90;;;12.30;99.90;;;;;;5035414;28;20220;-71
2022/10/01 03:10:24;;;;;;;6.95;5.20;;;12.30;99.90;;;;;;5033169;28;20683;-72
2022/10/01 03:12:50;;;;;;;5.65;4.95;;;12.30;99.90;;;;;;5035214;28;20307;-71
2022/10/01 03:15:19;;;;;;;9.35;5.70;;;12.20;99.90;;;;;;5035335;28;20299;-71
2022/10/01 03:17:50;;;;;;;9.98;5.40;;;12.20;99.90;;;;;;5035704;28;20589;-70
2022/10/01 03:20:17;;;;;;;7.30;5.10;;;12.20;99.90;;;;;;5034698;28;20243;-73
2022/10/01 03:22:46;;;;;;;9.15;6.63;;;12.20;99.90;;;;;;5035357;28;20295;-72
2022/10/01 03:25:13;;;;;;;5.60;5.10;;;12.20;99.90;;;;;;5034930;28;20337;-71
2022/10/01 03:27:40;;;;;;;6.88;6.22;;;12.20;99.90;;;;;;5037480;28;20226;-72
2022/10/01 03:30:08;;;;;;;6.30;5.53;;;12.00;99.90;;;;;;5043734;28;20231;-71
2022/10/01 03:32:35;;;;;;;7.70;6.35;;;12.00;99.90;;;;;;5046021;28;20228;-72
2022/10/01 03:35:13;;;;;;;5.30;4.90;;;12.00;99.90;;;;;;5036327;28;20239;-72
2022/10/01 03:37:40;;;;;;;7.07;6.40;;;12.00;99.90;;;;;;5047000;28;20753;-71
2022/10/01 03:40:14;;;;;;;8.65;5.90;;;12.00;99.90;;;;;;5035808;28;20223;-72
2022/10/01 03:42:41;;;;;;;9.50;7.65;;;12.00;99.90;;;;;;5035824;28;20263;-71
2022/10/01 03:45:09;;;;;;;7.90;7.10;;;11.90;99.90;;;;;;5036443;28;20206;-73
2022/10/01 03:47:36;;;;;;;7.50;6.30;;;11.80;99.90;;;;;;5032653;28;20234;-73
2022/10/01 03:50:04;;;;;;;7.50;6.80;;;11.70;99.90;;;;;;5035570;28;20207;-71
2022/10/01 03:52:30;;;;;;;8.00;6.43;;;11.70;99.90;;;;;;5035778;28;20226;-71
2022/10/01 03:55:05;;;;;;;7.70;6.50;;;11.70;99.90;;;;;;5027097;28;20557;-72
2022/10/01 03:57:33;;;;;;;10.38;7.07;;;11.60;99.90;;;;;;5035261;28;20307;-71
2022/10/01 04:00:00;;;;;;;7.38;6.63;;;11.60;99.90;;;;;;5035759;28;20196;-72
2022/10/01 04:02:27;;;;;;;10.43;7.45;;;11.60;99.90;;;;;;5035669;28;20615;-71
2022/10/01 04:04:58;;;;;;;9.90;8.13;;;11.50;99.90;;;;;;5036104;28;20564;-71
2022/10/01 04:07:25;;;;;;;8.65;7.50;;;11.50;99.90;;;;;;5033892;28;20266;-71
2022/10/01 04:09:59;;;;;;;7.50;6.70;;;11.40;99.90;;;;;;5034571;28;20221;-71
2022/10/01 04:12:25;;;;;;;8.00;6.72;;;11.30;99.90;;;;;;5035373;28;20228;-73
2022/10/01 04:14:55;;;;;;;8.35;7.10;;;11.30;99.90;;;;;;5033484;28;20244;-71
2022/10/01 04:17:22;;;;;;;9.48;7.38;;;11.30;99.90;;;;;;5036708;28;20304;-71
2022/10/01 04:19:49;;;;;;;10.25;7.93;;;11.30;99.90;;;;;;5031104;28;20229;-72
2022/10/01 04:22:15;;;;;;;8.38;7.47;;;11.20;99.90;;;;;;5032827;28;20567;-70
2022/10/01 04:24:44;;;;;;;7.50;6.80;;;11.20;99.90;;;;;;5035612;28;20212;-72
2022/10/01 04:27:10;;;;;;;8.07;7.22;;;11.10;99.90;;;;;;5035090;28;20242;-71
2022/10/01 04:29:37;;;;;;;9.02;6.25;;;11.10;99.90;;;;;;5035810;28;20293;-70
2022/10/01 04:32:06;;;;;;;8.13;7.32;;;11.10;99.90;;;;;;5036203;28;20233;-71
2022/10/01 04:37:13;;;;;;;9.13;7.18;;;11.00;99.90;;;;;;5037386;28;20592;-72
2022/10/01 04:39:41;;;;;;;7.53;6.82;;;11.00;99.90;;;;;;5038749;28;20206;-73
2022/10/01 04:42:08;;;;;;;9.25;8.35;;;11.00;99.90;;;;;;5036065;28;20289;-72
2022/10/01 04:44:35;;;;;;;8.80;7.95;;;10.90;99.90;;;;;;5036744;28;20811;-71
2022/10/01 04:47:02;;;;;;;10.38;7.70;;;10.90;99.90;;;;;;5033574;28;20518;-72
2022/10/01 04:49:31;;;;;;;7.80;6.97;;;11.00;99.90;;;;;;5032918;28;20567;-71
2022/10/01 04:51:58;;;;;;;9.15;8.25;;;10.90;99.90;;;;;;5033825;28;20231;-72
2022/10/01 04:54:25;;;;;;;9.77;7.82;;;11.00;99.90;;;;;;5033644;28;20200;-72
2022/10/01 04:56:52;;;;;;;8.90;7.28;;;11.00;99.90;;;;;;5032782;28;20229;-72
2022/10/01 04:59:19;;;;;;;9.52;8.55;;;11.00;99.90;;;;;;5033720;28;20199;-71
2022/10/01 05:01:46;;;;;;;10.35;9.35;;;11.00;99.90;;;;;;5033137;28;20285;-73
2022/10/01 05:04:13;;;;;;;9.52;8.45;;;11.00;99.90;;;;;;5033999;28;20235;-72
2022/10/01 05:06:41;;;;;;;8.30;7.50;;;11.00;99.90;;;;;;5033340;28;20205;-73
2022/10/01 05:09:09;;;;;;;9.07;7.65;;;11.00;99.90;;;;;;5033764;28;20240;-71
2022/10/01 05:11:36;;;;;;;8.90;7.28;;;11.00;99.90;;;;;;5032617;28;20201;-72
2022/10/01 05:14:03;;;;;;;8.93;8.02;;;11.00;99.90;;;;;;5035713;28;20208;-71
2022/10/01 05:16:29;;;;;;;8.43;6.93;;;11.00;99.90;;;;;;5048780;28;20247;-70
2022/10/01 05:18:58;;;;;;;8.93;7.45;;;11.10;99.90;;;;;;5037939;28;20313;-71
2022/10/01 05:21:24;;;;;;;8.02;6.10;;;11.10;99.90;;;;;;5033119;28;20213;-72
2022/10/01 05:23:53;;;;;;;8.02;6.18;;;11.10;99.90;;;;;;5033401;28;20206;-72
2022/10/01 05:26:20;;;;;;;7.47;6.50;;;11.10;99.90;;;;;;5033275;28;20202;-73
2022/10/01 05:28:47;;;;;;;6.13;5.53;;;11.10;99.90;;;;;;5032807;28;20221;-72
2022/10/01 05:31:20;;;;;;;6.85;5.20;;;11.00;99.90;;;;;;5033151;28;20304;-73
2022/10/01 05:33:47;;;;;;;5.95;5.35;;;11.20;99.90;;;;;;5033699;28;20211;-72
2022/10/01 05:36:27;;;;;;;7.90;5.65;;;11.20;99.90;;;;;;5032980;28;20296;-73
2022/10/01 05:38:55;;;;;;;6.70;5.75;;;11.30;99.90;;;;;;5033330;28;20309;-72
2022/10/01 05:45:22;;;;;;;7.40;5.82;;;11.40;99.90;;;;;;5025965;28;20688;-73
2022/10/01 05:47:55;;;;;;;7.97;5.45;;;11.40;99.90;;;;;;5031178;28;20281;-70
2022/10/01 05:50:24;;;;;;;6.18;5.57;;;11.40;99.90;;;;;;5032448;28;20203;-72
2022/10/01 05:53:22;;;;;;;6.15;5.65;;;11.40;99.90;;;;;;5030760;28;20222;-73
2022/10/01 05:55:50;;;;;;;7.55;5.20;;;11.40;99.90;;;;;;5029367;28;20208;-71
2022/10/01 05:58:17;;;;;;;6.07;5.20;;;11.50;99.90;;;;;;5029734;28;20538;-72
2022/10/01 06:00:44;;;;;;;7.50;5.60;;;11.50;99.90;;;;;;5032752;28;20201;-71
2022/10/01 06:03:20;;;;;;;7.70;5.85;;;11.50;99.90;;;;;;5033311;28;20202;-71
2022/10/01 06:05:47;;;;;;;6.15;5.53;;;11.50;99.90;;;;;;5030020;28;20232;-73
2022/10/01 06:08:15;;;;;;;6.65;6.05;;;11.60;99.90;;;;;;5031873;28;20723;-72
2022/10/01 06:10:42;;;;;;;7.25;6.13;;;11.50;99.90;;;;;;5031763;28;20619;-72
2022/10/01 06:13:16;;;;;;;6.95;6.28;;;11.50;99.90;;;;;;5032390;28;20361;-73
2022/10/01 06:15:45;;;;;;;6.35;5.10;;;11.40;99.90;;;;;;5032616;28;20252;-71
2022/10/01 06:18:13;;;;;;;6.28;5.70;;;11.50;99.90;;;;;;5032186;28;20218;-72
2022/10/01 06:20:40;;;;;;;6.60;5.43;;;11.50;99.90;;;;;;5032084;28;20206;-72
2022/10/01 06:23:11;;;;;;;5.80;5.30;;;11.40;99.90;;;;;;5032316;28;20255;-73
2022/10/01 06:25:38;;;;;;;8.10;5.78;;;11.50;99.90;;;;;;5032357;28;20231;-74
2022/10/01 06:28:07;;;;;;;5.85;5.25;;;11.40;99.90;;;;;;5032452;28;20661;-72
2022/10/01 06:30:38;;;;;;;5.60;5.10;;;11.50;99.90;;;;;;5031504;28;20213;-73
2022/10/01 06:33:07;;;;;;;5.90;5.40;;;11.50;99.90;;;;;;5028314;28;20238;-72
2022/10/01 06:35:35;;;;;;;5.70;5.05;;;11.50;99.90;;;;;;5031467;28;20224;-73
2022/10/01 06:38:02;;;;;;;6.18;5.60;;;11.50;99.90;;;;;;5032368;28;20704;-73
2022/10/01 06:40:29;;;;;;;6.22;4.95;;;11.50;99.90;;;;;;5031262;28;20806;-72
2022/10/01 06:42:57;;;;;;;5.80;5.30;;;11.50;99.90;;;;;;5032406;28;20203;-72
2022/10/01 06:45:29;;;;;;;9.68;5.90;;;11.50;99.90;;;;;;5029630;28;20214;-71
2022/10/01 06:48:01;;;;;;;7.65;5.60;;;11.50;99.90;;;;;;5032397;28;20314;-73
2022/10/01 06:51:11;;;;;;;6.78;5.60;;;11.50;99.90;;;;;;5032900;28;20211;-72
2022/10/01 06:53:37;;;;;;;7.03;5.78;;;11.50;99.90;;;;;;5021490;28;20224;-71
2022/10/01 06:56:12;;;;;;;6.30;5.77;;;11.40;99.90;;;;;;5032852;28;20195;-71
2022/10/01 06:58:40;;;;;;;6.63;6.03;;;11.40;99.90;;;;;;5036312;28;20508;-72
2022/10/01 07:01:41;;;;;;;5.22;4.82;;;11.40;99.90;;;;;;5047126;28;20211;-71
2022/10/01 07:04:09;;;;;;;5.85;5.35;;;11.50;99.90;;;;;;5037626;28;20245;-73
2022/10/01 07:06:36;;;;;;;6.70;5.43;;;11.40;99.90;;;;;;5031953;28;20211;-72
2022/10/01 07:09:03;;;;;;;6.40;5.80;;;11.40;99.90;;;;;;5032676;28;20219;-72
2022/10/01 07:11:30;;;;;;;6.82;6.22;;;11.50;99.90;;;;;;5032392;28;20230;-72
2022/10/01 07:13:57;;;;;;;7.97;4.53;;;11.50;99.90;;;;;;5033367;28;20224;-72
2022/10/01 07:16:25;;;;;;;6.72;5.97;;;11.50;99.90;;;;;;5036812;28;20671;-73
2022/10/01 07:18:52;;;;;;;6.18;5.50;;;11.50;99.90;;;;;;5036642;28;20310;-72
2022/10/01 07:21:20;;;;;;;7.13;5.20;;;11.60;99.90;;;;;;5041254;28;20224;-73
2022/10/01 07:23:48;;;;;;;8.35;7.47;;;11.50;99.90;;;;;;5041278;28;20198;-75
2022/10/01 07:26:16;;;;;;;5.88;5.28;;;11.50;99.90;;;;;;5036721;28;20236;-73
2022/10/01 07:28:43;;;;;;;6.22;5.72;;;11.50;99.90;;;;;;5035263;28;20721;-73
2022/10/01 07:31:10;;;;;;;6.75;5.38;;;11.60;99.90;;;;;;5034918;28;20248;-72
2022/10/01 07:33:38;;;;;;;6.07;5.57;;;11.70;99.90;;;;;;5035136;28;20223;-73
2022/10/01 07:36:07;;;;;;;6.97;5.30;;;11.70;99.90;;;;;;5039312;28;20593;-71
2022/10/01 07:38:36;;;;;;;5.80;5.30;;;11.60;99.90;;;;;;5036768;28;20622;-71
2022/10/01 07:41:03;;;;;;;4.90;4.50;;;11.70;99.90;;;;;;5035988;28;20298;-73
2022/10/01 07:43:33;;;;;;;4.93;4.20;;;11.70;99.90;;;;;;5035805;28;20238;-72
2022/10/01 07:46:03;;;;;;;5.20;4.80;;;11.70;99.90;;;;;;5034774;28;20729;-71
2022/10/01 07:48:30;;;;;;;8.48;5.28;;;11.70;99.90;;;;;;5034741;28;20230;-73
2022/10/01 07:50:57;;;;;;;5.90;5.40;;;11.90;99.90;;;;;;5032829;28;20205;-71
2022/10/01 07:53:24;;;;;;;5.20;4.70;;;11.80;99.90;;;;;;5031570;28;20232;-72
2022/10/01 07:55:53;;;;;;;7.53;6.00;;;11.70;99.90;;;;;;5036262;28;20220;-71
2022/10/01 07:58:22;;;;;;;5.93;5.32;;;11.80;99.90;;;;;;5036098;28;20292;-75
2022/10/01 08:00:54;;;;;;;7.30;5.95;;;11.90;99.90;;;;;;5034933;28;20238;-71
2022/10/01 08:03:21;;;;;;;5.95;5.50;;;11.90;99.90;;;;;;5035484;28;20289;-71
2022/10/01 08:05:48;;;;;;;9.70;7.30;;;12.00;99.90;;;;;;5035072;28;20292;-73
2022/10/01 08:08:15;;;;;;;7.47;6.88;;;12.00;99.90;;;;;;5034275;28;20225;-73
2022/10/01 08:10:42;;;;;;;7.03;6.53;;;11.90;99.90;;;;;;5033409;28;20221;-71
2022/10/01 08:13:14;;;;;;;7.45;6.75;;;12.10;99.90;;;;;;5035442;28;20244;-71
2022/10/01 08:15:41;;;;;;;7.97;7.28;;;12.20;99.90;;;;;;5034126;28;20206;-74
2022/10/01 08:18:08;;;;;;;11.23;8.43;;;12.30;99.90;;;;;;5035163;28;20311;-72
2022/10/01 08:20:35;;;;;;;8.88;8.07;;;12.30;99.90;;;;;;5031800;28;20659;-73
2022/10/01 08:23:03;;;;;;;9.25;8.05;;;12.40;99.90;;;;;;5034309;28;20199;-69
2022/10/01 08:25:30;;;;;;;10.18;9.32;;;12.50;99.90;;;;;;5033808;28;20250;-73
2022/10/01 08:27:58;;;;;;;8.77;8.07;;;12.40;99.90;;;;;;5033072;28;20307;-72
2022/10/01 08:30:27;;;;;;;10.52;9.57;;;12.50;99.90;;;;;;5033320;28;20210;-71
2022/10/01 08:32:55;;;;;;;11.05;10.05;;;12.50;99.90;;;;;;5035492;28;20227;-72
2022/10/01 08:35:22;;;;;;;10.50;9.60;;;12.50;99.90;;;;;;5034892;28;20205;-72
2022/10/01 08:37:49;;;;;;;10.63;9.63;;;12.60;99.90;;;;;;5035427;28;20228;-73
2022/10/01 08:40:18;;;;;;;10.75;9.85;;;12.60;99.90;;;;;;5033491;28;20207;-72
2022/10/01 08:42:53;;;;;;;11.35;10.45;;;12.70;99.90;;;;;;5036647;28;20239;-72
2022/10/01 08:45:26;;;;;;;12.20;11.00;;;12.70;99.90;;;;;;5036066;28;20207;-72
2022/10/01 08:48:03;;;;;;;12.07;10.65;;;12.80;99.90;;;;;;5041245;28;20231;-72
2022/10/01 08:50:43;;;;;;;10.07;9.13;;;12.80;99.90;;;;;;5036334;28;20537;-71
2022/10/01 08:53:16;;;;;;;9.43;8.63;;;12.90;99.90;;;;;;5026359;28;20241;-75
2022/10/01 08:55:44;;;;;;;11.15;9.88;;;12.90;99.90;;;;;;5041346;28;20204;-75
2022/10/01 08:58:17;;;;;;;10.43;9.52;;;12.90;99.90;;;;;;5039646;28;20228;-72
2022/10/01 09:00:46;;;;;;;11.27;10.35;;;13.00;99.90;;;;;;5034492;28;20208;-70
2022/10/01 09:03:17;;;;;;;10.35;9.38;;;13.20;99.90;;;;;;5035252;28;20203;-70
2022/10/01 09:06:08;;;;;;;10.40;9.40;;;13.30;99.90;;;;;;5034925;28;20208;-72
2022/10/01 09:08:45;;;;;;;9.57;8.73;;;13.40;99.90;;;;;;5035117;28;20318;-72
2022/10/01 09:11:23;;;;;;;10.55;9.68;;;13.40;99.90;;;;;;5028642;28;20239;-72
2022/10/01 09:14:18;;;;;;;10.70;9.70;;;13.50;99.90;;;;;;5035318;28;20220;-72
2022/10/01 09:16:54;;;;;;;11.25;10.15;;;13.50;99.90;;;;;;5032630;28;20235;-70
2022/10/01 09:19:44;;;;;;;9.20;8.50;;;13.60;99.90;;;;;;5031773;28;20200;-72
2022/10/01 09:22:18;;;;;;;10.98;9.98;;;13.70;99.90;;;;;;5034808;28;20212;-73
2022/10/01 09:24:48;;;;;;;10.57;8.90;;;14.00;99.90;;;;;;5036230;28;20204;-73
2022/10/01 09:27:18;;;;;;;7.53;6.88;;;14.20;99.90;;;;;;5034963;28;20223;-73
2022/10/01 09:29:50;;;;;;;7.85;6.50;;;14.50;99.90;;;;;;5035025;28;20196;-74
2022/10/01 09:32:21;;;;;;;9.43;8.18;;;14.70;99.90;;;;;;5033855;28;20214;-73
2022/10/01 09:34:53;;;;;;;8.02;7.43;;;14.80;99.90;;;;;;5033923;28;20279;-74
2022/10/01 09:37:29;;;;;;;8.38;7.68;;;14.80;99.90;;;;;;5033174;28;20255;-73
2022/10/01 09:40:14;;;;;;;8.05;7.25;;;15.00;99.90;;;;;;5028331;28;20231;-73
2022/10/01 09:42:41;;;;;;;5.85;5.35;;;15.40;99.90;;;;;;5033034;28;20741;-74
2022/10/01 09:45:12;;;;;;;5.25;4.40;;;16.00;99.90;;;;;;5032430;28;20329;-72
2022/10/01 09:47:42;;;;;;;5.07;4.20;;;17.00;99.90;;;;;;5032392;28;20674;-75
2022/10/01 09:50:15;;;;;;;4.70;4.30;;;17.60;99.90;;;;;;5032763;28;20913;-73
2022/10/01 09:52:45;;;;;;;4.70;4.30;;;18.10;99.90;;;;;;5036974;28;20450;-74
2022/10/01 09:55:22;;;;;;;3.40;2.93;;;18.80;99.90;;;;;;5037287;28;20902;-74
2022/10/01 09:57:56;;;;;;;3.23;2.97;;;19.10;99.90;;;;;;5039634;28;20538;-76
2022/10/01 10:00:25;;;;;;;4.10;3.80;;;19.10;99.90;;;;;;5048226;28;20447;-72
2022/10/01 10:02:56;;;;;;;4.67;3.87;;;19.30;99.90;;;;;;5045825;28;20447;-75
2022/10/01 10:05:27;;;;;;;4.67;4.27;;;19.20;99.90;;;;;;5039662;28;20441;-75
2022/10/01 10:07:57;;;;;;;6.20;4.20;;;19.00;99.90;;;;;;5038401;28;20974;-75
2022/10/01 10:10:29;;;;;;;4.13;3.73;;;19.20;99.90;;;;;;5032255;28;20528;-75
2022/10/01 10:12:59;;;;;;;7.30;3.93;;;18.60;99.90;;;;;;5034610;28;20862;-74
2022/10/01 10:15:30;;;;;;;7.73;5.00;;;19.00;99.90;;;;;;5032666;28;20450;-75
2022/10/01 10:18:15;;;;;;;5.17;4.63;;;18.90;99.90;;;;;;5033395;28;20477;-75
2022/10/01 10:20:45;;;;;;;4.83;4.03;;;19.10;99.90;;;;;;5029304;28;20526;-73
2022/10/01 10:23:16;;;;;;;6.40;4.67;;;18.90;99.90;;;;;;5032141;28;20480;-73
2022/10/01 10:25:43;;;;;;;5.10;4.30;;;18.50;99.90;;;;;;5032956;28;20483;-75
2022/10/01 10:28:22;;;;;;;8.33;4.93;;;18.70;99.90;;;;;;5034804;28;20553;-75
2022/10/01 10:30:51;;;;;;;6.43;4.93;;;18.80;99.90;;;;;;5035900;28;20508;-72
2022/10/01 10:33:20;;;;;;;6.10;4.00;;;18.80;99.90;;;;;;5040395;28;20490;-71
2022/10/01 10:35:57;;;;;;;4.67;3.43;;;19.30;99.90;;;;;;5047572;28;20536;-72
2022/10/01 10:38:26;;;;;;;5.00;4.00;;;19.40;99.90;;;;;;5047387;28;20465;-73
2022/10/01 10:41:05;;;;;;;8.13;4.20;;;19.20;99.90;;;;;;5045661;28;20437;-74
2022/10/01 10:43:36;;;;;;;4.37;3.73;;;19.50;99.90;;;;;;5040858;28;20540;-75
2022/10/01 10:46:09;;;;;;;8.13;3.80;;;19.40;99.90;;;;;;5031110;28;20471;-72
2022/10/01 10:48:42;;;;;;;5.93;2.97;;;19.40;99.90;;;;;;5015268;28;20467;-73
2022/10/01 10:51:11;;;;;;;4.60;3.53;;;19.40;99.90;;;;;;5012180;28;20447;-73
2022/10/01 10:53:43;;;;;;;3.27;3.03;;;19.30;99.90;;;;;;5010240;28;20577;-74
2022/10/01 10:56:21;;;;;;;4.83;3.37;;;19.30;99.90;;;;;;5009360;28;20937;-75
2022/10/01 10:58:49;;;;;;;8.77;5.30;;;18.80;99.90;;;;;;5010548;28;20482;-74
2022/10/01 11:01:19;;;;;;;5.90;4.20;;;18.60;99.90;;;;;;5011662;28;20452;-76
2022/10/01 11:03:48;;;;;;;7.53;3.63;;;18.10;99.90;;;;;;5010828;28;20444;-75
2022/10/01 11:06:18;;;;;;;16.13;5.20;;;17.80;99.90;;;;;;5015854;28;20454;-73
2022/10/01 11:08:55;;;;;;;3.07;2.80;;;17.80;99.90;;;;;;5018936;28;20494;-73
2022/10/01 11:11:42;;;;;;;5.23;3.60;;;18.10;99.90;;;;;;5018520;28;20459;-75
2022/10/01 11:14:26;;;;;;;6.50;2.70;;;18.50;99.90;;;;;;5018494;28;20482;-73
2022/10/01 11:17:13;;;;;;;6.30;2.93;;;18.90;99.90;;;;;;5029729;28;20465;-74
2022/10/01 11:20:09;;;;;;;8.23;4.07;;;18.90;99.90;;;;;;5026483;28;20550;-74
2022/10/01 11:22:52;;;;;;;4.87;2.87;;;18.80;99.90;;;;;;5017445;28;20457;-74
2022/10/01 11:25:29;;;;;;;3.93;2.33;;;18.40;99.90;;;;;;5014596;28;20466;-74
2022/10/01 11:28:09;;;;;;;4.57;2.20;;;18.50;99.90;;;;;;5011715;28;20481;-74
2022/10/01 11:30:44;;;;;;;11.50;3.67;;;18.60;99.90;;;;;;5010141;28;21067;-74
2022/10/01 11:33:22;;;;;;;5.30;3.03;;;18.90;99.90;;;;;;5011820;28;20463;-74
2022/10/01 11:35:57;;;;;;;2.97;2.30;;;19.00;99.90;;;;;;5012478;28;20445;-75
2022/10/01 11:38:44;;;;;;;4.20;2.50;;;18.90;99.90;;;;;;5009135;28;20553;-78
2022/10/01 11:41:31;;;;;;;5.27;3.13;;;18.90;99.90;;;;;;4996222;28;20478;-76
2022/10/01 11:44:04;;;;;;;4.53;2.57;;;19.10;99.90;;;;;;5008207;28;20556;-74
2022/10/01 11:46:50;;;;;;;7.37;4.37;;;19.10;99.90;;;;;;5010085;28;20456;-73
2022/10/01 11:49:25;;;;;;;6.97;2.60;;;19.10;99.90;;;;;;5009567;28;20538;-78
2022/10/01 11:52:02;;;;;;;9.20;2.20;;;19.10;99.90;;;;;;5012464;28;21310;-75
2022/10/01 11:54:34;;;;;;;5.60;2.43;;;19.10;99.90;;;;;;5007224;28;21187;-74
2022/10/01 11:59:54;;;;;;;5.43;2.77;;;19.00;99.90;;;;;;5023047;28;20434;-74
2022/10/01 12:02:27;;;;;;;6.00;2.17;;;19.00;99.90;;;;;;5031003;28;20539;-74
2022/10/01 12:04:58;;;;;;;7.13;3.37;;;19.00;99.90;;;;;;5034511;28;20573;-75
2022/10/01 12:07:32;;;;;;;7.50;2.83;;;19.00;99.90;;;;;;5035134;28;20503;-74
2022/10/01 12:10:15;;;;;;;4.20;2.60;;;19.00;99.90;;;;;;5033504;28;20436;-73
2022/10/01 12:12:47;;;;;;;6.50;2.20;;;19.20;99.90;;;;;;5035550;28;20530;-75
2022/10/01 12:15:19;;;;;;;7.57;2.40;;;19.30;99.90;;;;;;5036038;28;20494;-76
2022/10/01 12:17:52;;;;;;;6.30;2.00;;;19.50;99.90;;;;;;5038728;28;20554;-76
2022/10/01 12:20:26;;;;;;;8.23;3.10;;;19.60;99.90;;;;;;5042481;28;20445;-74
2022/10/01 12:22:55;;;;;;;5.87;2.77;;;19.50;99.90;;;;;;5045275;28;20443;-75
2022/10/01 12:25:31;;;;;;;7.27;2.47;;;19.10;99.90;;;;;;5045241;28;20450;-75
2022/10/01 12:28:08;;;;;;;5.53;2.33;;;18.80;99.90;;;;;;5045142;28;20469;-75
2022/10/01 12:30:42;;;;;;;9.57;3.33;;;18.60;99.90;;;;;;5040338;28;20451;-75
2022/10/01 12:33:39;;;;;;;5.30;2.30;;;18.30;99.90;;;;;;5044965;28;20449;-76
2022/10/01 12:36:14;;;;;;;7.30;2.87;;;17.90;99.90;;;;;;5035074;28;20435;-75
2022/10/01 12:38:55;;;;;;;6.43;2.97;;;17.80;99.90;;;;;;5033320;28;20509;-76
2022/10/01 12:41:38;;;;;;;8.53;3.57;;;17.60;99.90;;;;;;5029396;28;20451;-76
2022/10/01 12:44:39;;;;;;;13.20;2.80;;;17.50;99.90;;;;;;5037979;28;20542;-75
2022/10/01 12:47:23;;;;;;;7.97;2.10;;;17.40;99.90;;;;;;4996777;28;20509;-73
2022/10/01 12:49:57;;;;;;;3.73;1.40;;;17.20;99.90;;;;;;5032867;28;21025;-73
2022/10/01 12:52:36;;;;;;;4.85;1.45;;;17.00;99.90;;;;;;5030121;28;20533;-74
2022/10/01 12:55:28;;;;;;;7.60;1.40;;;16.80;99.90;;;;;;5032108;28;20310;-74
2022/10/01 12:58:06;;;;;;;6.20;1.37;;;16.70;99.90;;;;;;5030990;28;20233;-73
2022/10/01 13:00:39;;;;;;;3.10;1.77;;;17.10;99.90;;;;;;5030887;28;20457;-74
2022/10/01 13:03:28;;;;;;;4.13;1.37;;;17.30;99.90;;;;;;5033191;28;20443;-75
2022/10/01 13:06:08;;;;;;;2.67;1.30;;;17.40;99.90;;;;;;5022550;28;20504;-74
2022/10/01 13:08:52;;;;;;;2.63;1.10;;;17.50;99.90;;;;;;5033505;28;20510;-74
2022/10/01 13:11:34;;;;;;;2.07;1.20;;;17.10;99.90;;;;;;5030638;28;20525;-75
2022/10/01 13:14:04;;;;;;;4.68;1.27;;;17.00;99.90;;;;;;5033357;28;20545;-74
2022/10/01 13:16:38;;;;;;;2.33;1.33;;;16.80;99.90;;;;;;5031745;28;20676;-74
2022/10/01 13:19:10;;;;;;;3.60;1.20;;;16.60;99.90;;;;;;5033667;28;20211;-74